sensor_id;sensor_type;location;lat;lon;timestamp;temperature;humidity
48604;DHT22;32708;51.212;6.788;2023-07-13T00:01:51;19.30;99.90
48604;DHT22;32708;51.212;6.788;2023-07-13T00:04:21;19.30;27.20
48604;DHT22;32708;51.212;6.788;2023-07-13T00:06:52;19.30;58.00
48604;DHT22;32708;51.212;6.788;2023-07-13T00:09:19;19.30;99.90
48604;DHT22;32708;51.212;6.788;2023-07-13T00:11:51;19.20;71.90
48604;DHT22;32708;51.212;6.788;2023-07-13T00:14:20;19.40;20.10
48604;DHT22;32708;51.212;6.788;2023-07-13T00:16:47;19.30;78.90
48604;DHT22;32708;51.212;6.788;2023-07-13T00:19:14;19.20;99.90
48604;DHT22;32708;51.212;6.788;2023-07-13T00:21:41;19.20;99.90
48604;DHT22;32708;51.212;6.788;2023-07-13T00:24:11;19.20;99.90
48604;DHT22;32708;51.212;6.788;2023-07-13T00:26:39;19.20;99.90
48604;DHT22;32708;51.212;6.788;2023-07-13T00:29:06;19.10;99.90
48604;DHT22;32708;51.212;6.788;2023-07-13T00:31:35;19.00;99.90
48604;DHT22;32708;51.212;6.788;2023-07-13T00:34:03;19.10;1.00
48604;DHT22;32708;51.212;6.788;2023-07-13T00:36:31;19.00;99.90
48604;DHT22;32708;51.212;6.788;2023-07-13T00:38:57;18.90;67.60
48604;DHT22;32708;51.212;6.788;2023-07-13T00:41:24;19.00;76.90
48604;DHT22;32708;51.212;6.788;2023-07-13T00:43:50;19.00;1.00
48604;DHT22;32708;51.212;6.788;2023-07-13T00:46:20;18.90;99.90
48604;DHT22;32708;51.212;6.788;2023-07-13T00:48:51;18.90;99.90
48604;DHT22;32708;51.212;6.788;2023-07-13T00:51:26;18.80;99.90
48604;DHT22;32708;51.212;6.788;2023-07-13T00:53:59;18.70;1.00
48604;DHT22;32708;51.212;6.788;2023-07-13T00:56:30;18.60;1.00
48604;DHT22;32708;51.212;6.788;2023-07-13T00:59:00;18.60;70.10
48604;DHT22;32708;51.212;6.788;2023-07-13T01:01:30;18.70;1.00
48604;DHT22;32708;51.212;6.788;2023-07-13T01:03:57;18.60;99.90
48604;DHT22;32708;51.212;6.788;2023-07-13T01:06:25;18.50;1.00
48604;DHT22;32708;51.212;6.788;2023-07-13T01:08:51;18.40;99.90
48604;DHT22;32708;51.212;6.788;2023-07-13T01:11:20;18.40;99.90
48604;DHT22;32708;51.212;6.788;2023-07-13T01:13:48;18.40;99.90
48604;DHT22;32708;51.212;6.788;2023-07-13T01:16:27;18.40;93.90
48604;DHT22;32708;51.212;6.788;2023-07-13T01:18:56;18.50;3.60
48604;DHT22;32708;51.212;6.788;2023-07-13T01:21:29;18.50;99.90
48604;DHT22;32708;51.212;6.788;2023-07-13T01:23:59;18.50;99.90
48604;DHT22;32708;51.212;6.788;2023-07-13T01:26:25;18.30;21.50
48604;DHT22;32708;51.212;6.788;2023-07-13T01:28:52;18.30;99.90
48604;DHT22;32708;51.212;6.788;2023-07-13T01:31:19;18.10;99.90
48604;DHT22;32708;51.212;6.788;2023-07-13T01:33:45;18.10;1.00
48604;DHT22;32708;51.212;6.788;2023-07-13T01:36:12;18.10;1.00
48604;DHT22;32708;51.212;6.788;2023-07-13T01:38:38;18.20;99.90
48604;DHT22;32708;51.212;6.788;2023-07-13T01:41:04;18.20;1.00
48604;DHT22;32708;51.212;6.788;2023-07-13T01:43:30;18.30;99.90
48604;DHT22;32708;51.212;6.788;2023-07-13T01:45:56;18.20;99.90
48604;DHT22;32708;51.212;6.788;2023-07-13T01:48:22;18.20;99.90
48604;DHT22;32708;51.212;6.788;2023-07-13T01:50:48;18.20;99.90
48604;DHT22;32708;51.212;6.788;2023-07-13T01:53:15;18.20;1.00
48604;DHT22;32708;51.212;6.788;2023-07-13T01:55:41;18.20;1.00
48604;DHT22;32708;51.212;6.788;2023-07-13T01:58:08;18.20;1.00
48604;DHT22;32708;51.212;6.788;2023-07-13T02:00:34;18.20;69.10
48604;DHT22;32708;51.212;6.788;2023-07-13T02:03:02;18.10;99.90
48604;DHT22;32708;51.212;6.788;2023-07-13T02:05:28;18.10;99.90
48604;DHT22;32708;51.212;6.788;2023-07-13T02:07:54;18.00;99.90
48604;DHT22;32708;51.212;6.788;2023-07-13T02:10:20;18.00;99.90
48604;DHT22;32708;51.212;6.788;2023-07-13T02:12:49;18.00;99.90
48604;DHT22;32708;51.212;6.788;2023-07-13T02:15:17;17.90;99.90
48604;DHT22;32708;51.212;6.788;2023-07-13T02:17:43;17.80;99.90
48604;DHT22;32708;51.212;6.788;2023-07-13T02:20:10;17.80;99.90
48604;DHT22;32708;51.212;6.788;2023-07-13T02:22:36;17.80;99.90
48604;DHT22;32708;51.212;6.788;2023-07-13T02:25:02;17.90;99.90
48604;DHT22;32708;51.212;6.788;2023-07-13T02:27:29;17.90;99.90
48604;DHT22;32708;51.212;6.788;2023-07-13T02:29:55;17.90;99.90
48604;DHT22;32708;51.212;6.788;2023-07-13T02:32:21;17.80;99.90
48604;DHT22;32708;51.212;6.788;2023-07-13T02:34:48;17.90;99.90
48604;DHT22;32708;51.212;6.788;2023-07-13T02:37:14;17.80;99.90
48604;DHT22;32708;51.212;6.788;2023-07-13T02:39:40;17.90;99.90
48604;DHT22;32708;51.212;6.788;2023-07-13T02:42:07;17.90;99.90
48604;DHT22;32708;51.212;6.788;2023-07-13T02:44:33;17.80;99.90
48604;DHT22;32708;51.212;6.788;2023-07-13T02:46:59;17.70;99.90
48604;DHT22;32708;51.212;6.788;2023-07-13T02:49:25;17.80;99.90
48604;DHT22;32708;51.212;6.788;2023-07-13T02:51:51;17.80;99.90
48604;DHT22;32708;51.212;6.788;2023-07-13T02:54:17;17.80;1.00
48604;DHT22;32708;51.212;6.788;2023-07-13T02:56:43;17.70;99.90
48604;DHT22;32708;51.212;6.788;2023-07-13T02:59:09;17.70;99.90
48604;DHT22;32708;51.212;6.788;2023-07-13T03:01:36;17.70;1.00
48604;DHT22;32708;51.212;6.788;2023-07-13T03:04:03;17.70;1.00
48604;DHT22;32708;51.212;6.788;2023-07-13T03:06:33;17.60;1.00
48604;DHT22;32708;51.212;6.788;2023-07-13T03:09:00;17.60;1.00
48604;DHT22;32708;51.212;6.788;2023-07-13T03:11:28;17.50;1.00
48604;DHT22;32708;51.212;6.788;2023-07-13T03:14:03;17.60;1.00
48604;DHT22;32708;51.212;6.788;2023-07-13T03:16:33;17.60;1.00
48604;DHT22;32708;51.212;6.788;2023-07-13T03:18:59;17.60;1.00
48604;DHT22;32708;51.212;6.788;2023-07-13T03:21:25;17.60;1.00
48604;DHT22;32708;51.212;6.788;2023-07-13T03:23:51;17.60;1.00
48604;DHT22;32708;51.212;6.788;2023-07-13T03:26:20;17.50;1.00
48604;DHT22;32708;51.212;6.788;2023-07-13T03:28:48;17.60;1.00
48604;DHT22;32708;51.212;6.788;2023-07-13T03:31:23;17.50;1.00
48604;DHT22;32708;51.212;6.788;2023-07-13T03:33:52;17.50;1.00
48604;DHT22;32708;51.212;6.788;2023-07-13T03:36:24;17.50;1.00
48604;DHT22;32708;51.212;6.788;2023-07-13T03:38:58;17.50;1.00
48604;DHT22;32708;51.212;6.788;2023-07-13T03:41:37;17.50;1.00
48604;DHT22;32708;51.212;6.788;2023-07-13T03:44:04;17.50;1.00
48604;DHT22;32708;51.212;6.788;2023-07-13T03:46:31;17.50;1.00
48604;DHT22;32708;51.212;6.788;2023-07-13T03:48:59;17.40;1.00
48604;DHT22;32708;51.212;6.788;2023-07-13T03:51:26;17.50;1.00
48604;DHT22;32708;51.212;6.788;2023-07-13T03:53:52;17.50;1.00
48604;DHT22;32708;51.212;6.788;2023-07-13T03:56:19;17.60;1.00
48604;DHT22;32708;51.212;6.788;2023-07-13T03:58:48;17.60;1.00
48604;DHT22;32708;51.212;6.788;2023-07-13T04:01:19;17.80;1.00
48604;DHT22;32708;51.212;6.788;2023-07-13T04:03:47;17.90;99.90
48604;DHT22;32708;51.212;6.788;2023-07-13T04:06:26;18.10;99.90
48604;DHT22;32708;51.212;6.788;2023-07-13T04:08:58;18.70;99.90
48604;DHT22;32708;51.212;6.788;2023-07-13T04:11:28;17.90;99.90
48604;DHT22;32708;51.212;6.788;2023-07-13T04:13:55;17.80;99.90
48604;DHT22;32708;51.212;6.788;2023-07-13T04:16:22;17.60;99.90
48604;DHT22;32708;51.212;6.788;2023-07-13T04:18:49;17.60;1.00
48604;DHT22;32708;51.212;6.788;2023-07-13T04:21:16;17.50;1.00
48604;DHT22;32708;51.212;6.788;2023-07-13T04:23:43;17.30;1.00
48604;DHT22;32708;51.212;6.788;2023-07-13T04:26:09;17.40;1.00
48604;DHT22;32708;51.212;6.788;2023-07-13T04:28:36;17.50;1.00
48604;DHT22;32708;51.212;6.788;2023-07-13T04:31:02;17.60;1.00
48604;DHT22;32708;51.212;6.788;2023-07-13T04:33:29;17.70;1.00
48604;DHT22;32708;51.212;6.788;2023-07-13T04:35:55;17.60;1.00
48604;DHT22;32708;51.212;6.788;2023-07-13T04:38:25;17.50;1.00
48604;DHT22;32708;51.212;6.788;2023-07-13T04:40:59;17.40;1.00
48604;DHT22;32708;51.212;6.788;2023-07-13T04:43:28;17.60;1.00
48604;DHT22;32708;51.212;6.788;2023-07-13T04:45:55;17.50;1.00
48604;DHT22;32708;51.212;6.788;2023-07-13T04:48:22;17.50;1.00
48604;DHT22;32708;51.212;6.788;2023-07-13T04:50:55;17.80;1.00
48604;DHT22;32708;51.212;6.788;2023-07-13T04:53:23;18.10;99.90
48604;DHT22;32708;51.212;6.788;2023-07-13T04:55:49;18.50;99.90
48604;DHT22;32708;51.212;6.788;2023-07-13T04:58:15;18.80;99.90
48604;DHT22;32708;51.212;6.788;2023-07-13T05:00:42;18.70;28.60
48604;DHT22;32708;51.212;6.788;2023-07-13T05:03:08;18.80;99.90
48604;DHT22;32708;51.212;6.788;2023-07-13T05:05:34;18.90;99.90
48604;DHT22;32708;51.212;6.788;2023-07-13T05:08:01;19.30;99.90
48604;DHT22;32708;51.212;6.788;2023-07-13T05:10:28;18.80;8.50
48604;DHT22;32708;51.212;6.788;2023-07-13T05:12:54;18.90;1.00
48604;DHT22;32708;51.212;6.788;2023-07-13T05:15:22;18.90;97.70
48604;DHT22;32708;51.212;6.788;2023-07-13T05:17:49;18.40;99.90
48604;DHT22;32708;51.212;6.788;2023-07-13T05:20:17;18.70;99.90
48604;DHT22;32708;51.212;6.788;2023-07-13T05:22:44;19.00;99.90
48604;DHT22;32708;51.212;6.788;2023-07-13T05:25:13;19.30;1.10
48604;DHT22;32708;51.212;6.788;2023-07-13T05:27:40;19.40;99.90
48604;DHT22;32708;51.212;6.788;2023-07-13T05:30:06;19.60;40.10
48604;DHT22;32708;51.212;6.788;2023-07-13T05:32:36;19.80;99.90
48604;DHT22;32708;51.212;6.788;2023-07-13T05:35:02;19.80;1.00
48604;DHT22;32708;51.212;6.788;2023-07-13T05:37:29;19.80;24.80
48604;DHT22;32708;51.212;6.788;2023-07-13T05:39:55;19.70;99.90
48604;DHT22;32708;51.212;6.788;2023-07-13T05:42:21;19.70;99.90
48604;DHT22;32708;51.212;6.788;2023-07-13T05:44:47;19.40;1.00
48604;DHT22;32708;51.212;6.788;2023-07-13T05:47:13;19.70;99.90
48604;DHT22;32708;51.212;6.788;2023-07-13T05:49:41;20.00;99.90
48604;DHT22;32708;51.212;6.788;2023-07-13T05:52:07;20.20;99.90
48604;DHT22;32708;51.212;6.788;2023-07-13T05:54:33;20.00;19.80
48604;DHT22;32708;51.212;6.788;2023-07-13T05:56:59;20.10;99.80
48604;DHT22;32708;51.212;6.788;2023-07-13T05:59:26;20.50;79.90
48604;DHT22;32708;51.212;6.788;2023-07-13T06:01:52;20.40;1.00
48604;DHT22;32708;51.212;6.788;2023-07-13T06:04:19;20.50;99.90
48604;DHT22;32708;51.212;6.788;2023-07-13T06:06:46;20.60;99.90
48604;DHT22;32708;51.212;6.788;2023-07-13T06:09:12;20.60;31.30
48604;DHT22;32708;51.212;6.788;2023-07-13T06:11:38;20.40;99.90
48604;DHT22;32708;51.212;6.788;2023-07-13T06:14:04;20.20;1.00
48604;DHT22;32708;51.212;6.788;2023-07-13T06:16:30;20.20;99.90
48604;DHT22;32708;51.212;6.788;2023-07-13T06:18:56;20.20;99.90
48604;DHT22;32708;51.212;6.788;2023-07-13T06:21:23;19.80;99.90
48604;DHT22;32708;51.212;6.788;2023-07-13T06:23:50;19.90;99.90
48604;DHT22;32708;51.212;6.788;2023-07-13T06:26:18;20.40;99.90
48604;DHT22;32708;51.212;6.788;2023-07-13T06:28:46;20.50;91.20
48604;DHT22;32708;51.212;6.788;2023-07-13T06:31:14;20.20;99.90
48604;DHT22;32708;51.212;6.788;2023-07-13T06:33:40;20.10;67.50
48604;DHT22;32708;51.212;6.788;2023-07-13T06:36:08;20.10;99.90
48604;DHT22;32708;51.212;6.788;2023-07-13T06:38:35;20.20;99.90
48604;DHT22;32708;51.212;6.788;2023-07-13T06:41:02;20.10;38.40
48604;DHT22;32708;51.212;6.788;2023-07-13T06:43:30;20.20;95.60
48604;DHT22;32708;51.212;6.788;2023-07-13T06:45:57;20.40;99.90
48604;DHT22;32708;51.212;6.788;2023-07-13T06:48:24;20.10;99.90
48604;DHT22;32708;51.212;6.788;2023-07-13T06:50:50;20.20;99.90
48604;DHT22;32708;51.212;6.788;2023-07-13T06:53:19;20.10;99.90
48604;DHT22;32708;51.212;6.788;2023-07-13T06:55:46;20.10;99.90
48604;DHT22;32708;51.212;6.788;2023-07-13T06:58:16;19.80;99.90
48604;DHT22;32708;51.212;6.788;2023-07-13T07:00:43;19.60;99.90
48604;DHT22;32708;51.212;6.788;2023-07-13T07:03:10;19.40;1.00
48604;DHT22;32708;51.212;6.788;2023-07-13T07:05:36;19.50;1.00
48604;DHT22;32708;51.212;6.788;2023-07-13T07:08:02;19.50;1.00
48604;DHT22;32708;51.212;6.788;2023-07-13T07:10:30;19.30;1.00
48604;DHT22;32708;51.212;6.788;2023-07-13T07:12:57;19.30;1.00
48604;DHT22;32708;51.212;6.788;2023-07-13T07:15:23;19.20;1.00
48604;DHT22;32708;51.212;6.788;2023-07-13T07:17:49;19.10;1.00
48604;DHT22;32708;51.212;6.788;2023-07-13T07:20:16;19.40;1.00
48604;DHT22;32708;51.212;6.788;2023-07-13T07:22:42;19.60;1.00
48604;DHT22;32708;51.212;6.788;2023-07-13T07:25:08;19.80;99.90
48604;DHT22;32708;51.212;6.788;2023-07-13T07:27:35;19.90;99.90
48604;DHT22;32708;51.212;6.788;2023-07-13T07:30:01;19.80;99.90
48604;DHT22;32708;51.212;6.788;2023-07-13T07:32:29;19.70;99.90
48604;DHT22;32708;51.212;6.788;2023-07-13T07:34:59;19.80;99.90
48604;DHT22;32708;51.212;6.788;2023-07-13T07:37:25;19.90;99.90
48604;DHT22;32708;51.212;6.788;2023-07-13T07:39:51;20.10;99.90
48604;DHT22;32708;51.212;6.788;2023-07-13T07:42:18;20.20;99.90
48604;DHT22;32708;51.212;6.788;2023-07-13T07:44:44;20.50;33.00
48604;DHT22;32708;51.212;6.788;2023-07-13T07:47:10;20.50;99.90
48604;DHT22;32708;51.212;6.788;2023-07-13T07:49:37;20.70;99.90
48604;DHT22;32708;51.212;6.788;2023-07-13T07:52:04;21.10;99.90
48604;DHT22;32708;51.212;6.788;2023-07-13T07:54:30;21.60;99.90
48604;DHT22;32708;51.212;6.788;2023-07-13T07:56:56;21.50;99.90
48604;DHT22;32708;51.212;6.788;2023-07-13T07:59:23;21.20;99.90
48604;DHT22;32708;51.212;6.788;2023-07-13T08:01:49;20.70;99.90
48604;DHT22;32708;51.212;6.788;2023-07-13T08:04:16;20.60;99.90
48604;DHT22;32708;51.212;6.788;2023-07-13T08:06:42;20.40;99.90
48604;DHT22;32708;51.212;6.788;2023-07-13T08:09:09;19.90;99.90
48604;DHT22;32708;51.212;6.788;2023-07-13T08:11:35;20.60;99.90
48604;DHT22;32708;51.212;6.788;2023-07-13T08:14:02;20.40;99.90
48604;DHT22;32708;51.212;6.788;2023-07-13T08:16:28;20.60;99.90
48604;DHT22;32708;51.212;6.788;2023-07-13T08:18:54;20.60;99.90
48604;DHT22;32708;51.212;6.788;2023-07-13T08:21:20;20.70;99.90
48604;DHT22;32708;51.212;6.788;2023-07-13T08:23:47;20.70;99.90
48604;DHT22;32708;51.212;6.788;2023-07-13T08:26:13;20.90;99.90
48604;DHT22;32708;51.212;6.788;2023-07-13T08:28:40;21.00;1.00
48604;DHT22;32708;51.212;6.788;2023-07-13T08:31:07;21.30;99.90
48604;DHT22;32708;51.212;6.788;2023-07-13T08:33:36;21.20;99.90
48604;DHT22;32708;51.212;6.788;2023-07-13T08:36:03;21.30;99.90
48604;DHT22;32708;51.212;6.788;2023-07-13T08:38:30;21.30;99.90
48604;DHT22;32708;51.212;6.788;2023-07-13T08:40:57;21.50;34.80
48604;DHT22;32708;51.212;6.788;2023-07-13T08:43:30;21.80;99.90
48604;DHT22;32708;51.212;6.788;2023-07-13T08:49:18;21.70;99.90
48604;DHT22;32708;51.212;6.788;2023-07-13T08:52:02;21.70;1.00
48604;DHT22;32708;51.212;6.788;2023-07-13T08:54:43;22.00;99.90
48604;DHT22;32708;51.212;6.788;2023-07-13T08:57:17;22.40;39.40
48604;DHT22;32708;51.212;6.788;2023-07-13T09:00:09;22.30;1.00
48604;DHT22;32708;51.212;6.788;2023-07-13T09:02:56;22.30;99.90
48604;DHT22;32708;51.212;6.788;2023-07-13T09:05:33;22.40;99.90
48604;DHT22;32708;51.212;6.788;2023-07-13T09:10:58;21.80;1.00
48604;DHT22;32708;51.212;6.788;2023-07-13T09:13:54;21.70;99.90
48604;DHT22;32708;51.212;6.788;2023-07-13T09:16:26;21.70;99.90
48604;DHT22;32708;51.212;6.788;2023-07-13T09:18:59;21.70;99.90
48604;DHT22;32708;51.212;6.788;2023-07-13T09:21:34;21.80;99.90
48604;DHT22;32708;51.212;6.788;2023-07-13T09:24:29;21.90;99.90
48604;DHT22;32708;51.212;6.788;2023-07-13T09:27:15;22.10;99.90
48604;DHT22;32708;51.212;6.788;2023-07-13T09:32:47;22.00;95.00
48604;DHT22;32708;51.212;6.788;2023-07-13T09:35:23;22.10;99.90
48604;DHT22;32708;51.212;6.788;2023-07-13T09:37:59;22.10;99.90
48604;DHT22;32708;51.212;6.788;2023-07-13T09:43:27;21.90;99.90
48604;DHT22;32708;51.212;6.788;2023-07-13T09:45:56;21.30;1.00
48604;DHT22;32708;51.212;6.788;2023-07-13T09:48:22;21.80;99.90
48604;DHT22;32708;51.212;6.788;2023-07-13T09:50:54;21.90;99.90
48604;DHT22;32708;51.212;6.788;2023-07-13T09:53:22;22.00;1.00
48604;DHT22;32708;51.212;6.788;2023-07-13T09:55:49;21.80;99.90
48604;DHT22;32708;51.212;6.788;2023-07-13T09:58:20;21.80;99.90
48604;DHT22;32708;51.212;6.788;2023-07-13T10:01:02;21.80;99.90
48604;DHT22;32708;51.212;6.788;2023-07-13T10:03:32;22.00;99.90
48604;DHT22;32708;51.212;6.788;2023-07-13T10:06:19;22.20;1.00
48604;DHT22;32708;51.212;6.788;2023-07-13T10:08:49;22.20;99.90
48604;DHT22;32708;51.212;6.788;2023-07-13T10:11:23;22.60;1.00
48604;DHT22;32708;51.212;6.788;2023-07-13T10:14:03;22.70;99.90
48604;DHT22;32708;51.212;6.788;2023-07-13T10:16:36;22.90;99.90
48604;DHT22;32708;51.212;6.788;2023-07-13T10:21:57;22.80;99.90
48604;DHT22;32708;51.212;6.788;2023-07-13T10:24:33;22.90;41.10
48604;DHT22;32708;51.212;6.788;2023-07-13T10:27:17;23.20;22.20
48604;DHT22;32708;51.212;6.788;2023-07-13T10:30:14;22.90;1.00
48604;DHT22;32708;51.212;6.788;2023-07-13T10:32:47;22.70;26.40
48604;DHT22;32708;51.212;6.788;2023-07-13T10:35:16;23.10;1.00
48604;DHT22;32708;51.212;6.788;2023-07-13T10:37:53;22.80;99.90
48604;DHT22;32708;51.212;6.788;2023-07-13T10:40:34;23.00;99.90
48604;DHT22;32708;51.212;6.788;2023-07-13T10:43:13;23.10;99.90
48604;DHT22;32708;51.212;6.788;2023-07-13T10:45:45;23.00;99.90
48604;DHT22;32708;51.212;6.788;2023-07-13T10:48:16;22.80;99.90
48604;DHT22;32708;51.212;6.788;2023-07-13T10:50:46;22.40;99.90
48604;DHT22;32708;51.212;6.788;2023-07-13T10:53:29;22.20;1.00
48604;DHT22;32708;51.212;6.788;2023-07-13T10:55:59;22.20;1.00
48604;DHT22;32708;51.212;6.788;2023-07-13T10:58:38;22.20;7.20
48604;DHT22;32708;51.212;6.788;2023-07-13T11:06:15;22.70;1.00
48604;DHT22;32708;51.212;6.788;2023-07-13T11:08:57;22.80;99.90
48604;DHT22;32708;51.212;6.788;2023-07-13T11:13:56;23.60;99.90
48604;DHT22;32708;51.212;6.788;2023-07-13T11:16:46;23.90;25.40
48604;DHT22;32708;51.212;6.788;2023-07-13T11:22:40;23.90;1.00
48604;DHT22;32708;51.212;6.788;2023-07-13T11:25:27;23.60;1.00
48604;DHT22;32708;51.212;6.788;2023-07-13T11:30:40;23.60;1.00
48604;DHT22;32708;51.212;6.788;2023-07-13T11:33:17;23.40;1.00
48604;DHT22;32708;51.212;6.788;2023-07-13T11:36:21;23.30;1.00
48604;DHT22;32708;51.212;6.788;2023-07-13T11:39:00;23.50;99.90
48604;DHT22;32708;51.212;6.788;2023-07-13T11:41:36;24.00;99.90
48604;DHT22;32708;51.212;6.788;2023-07-13T11:44:16;24.20;99.90
48604;DHT22;32708;51.212;6.788;2023-07-13T11:46:50;23.80;99.90
48604;DHT22;32708;51.212;6.788;2023-07-13T11:49:21;24.00;99.90
48604;DHT22;32708;51.212;6.788;2023-07-13T11:51:49;24.30;99.90
48604;DHT22;32708;51.212;6.788;2023-07-13T11:54:30;24.70;99.90
48604;DHT22;32708;51.212;6.788;2023-07-13T11:59:55;24.80;99.90
48604;DHT22;32708;51.212;6.788;2023-07-13T12:02:32;24.60;99.90
48604;DHT22;32708;51.212;6.788;2023-07-13T12:05:04;24.80;99.90
48604;DHT22;32708;51.212;6.788;2023-07-13T12:07:33;24.70;99.90
48604;DHT22;32708;51.212;6.788;2023-07-13T12:10:18;24.30;99.90
48604;DHT22;32708;51.212;6.788;2023-07-13T12:13:03;23.80;99.90
48604;DHT22;32708;51.212;6.788;2023-07-13T12:15:44;24.00;92.90
48604;DHT22;32708;51.212;6.788;2023-07-13T12:18:19;24.10;55.30
48604;DHT22;32708;51.212;6.788;2023-07-13T12:20:51;24.20;10.70
48604;DHT22;32708;51.212;6.788;2023-07-13T12:23:33;24.60;1.00
48604;DHT22;32708;51.212;6.788;2023-07-13T12:26:04;24.60;1.00
48604;DHT22;32708;51.212;6.788;2023-07-13T12:28:37;24.40;1.00
48604;DHT22;32708;51.212;6.788;2023-07-13T12:31:07;24.40;1.00
48604;DHT22;32708;51.212;6.788;2023-07-13T12:34:02;24.30;1.00
48604;DHT22;32708;51.212;6.788;2023-07-13T12:36:53;24.70;99.90
48604;DHT22;32708;51.212;6.788;2023-07-13T12:39:33;24.70;99.90
48604;DHT22;32708;51.212;6.788;2023-07-13T12:42:28;25.00;99.90
48604;DHT22;32708;51.212;6.788;2023-07-13T12:45:19;25.30;99.90
48604;DHT22;32708;51.212;6.788;2023-07-13T12:47:50;25.60;99.90
48604;DHT22;32708;51.212;6.788;2023-07-13T12:50:31;26.20;99.90
48604;DHT22;32708;51.212;6.788;2023-07-13T12:53:05;26.10;99.90
48604;DHT22;32708;51.212;6.788;2023-07-13T12:55:43;25.30;99.90
48604;DHT22;32708;51.212;6.788;2023-07-13T12:58:32;25.10;99.90
48604;DHT22;32708;51.212;6.788;2023-07-13T13:01:09;24.70;99.90
48604;DHT22;32708;51.212;6.788;2023-07-13T13:03:46;24.80;99.90
48604;DHT22;32708;51.212;6.788;2023-07-13T13:08:51;24.50;99.90
48604;DHT22;32708;51.212;6.788;2023-07-13T13:11:21;24.40;99.90
48604;DHT22;32708;51.212;6.788;2023-07-13T13:13:49;24.60;99.90
48604;DHT22;32708;51.212;6.788;2023-07-13T13:18:46;24.50;99.90
48604;DHT22;32708;51.212;6.788;2023-07-13T13:21:12;24.40;99.90
48604;DHT22;32708;51.212;6.788;2023-07-13T13:23:38;24.30;99.90
48604;DHT22;32708;51.212;6.788;2023-07-13T13:26:12;24.10;99.90
48604;DHT22;32708;51.212;6.788;2023-07-13T13:28:43;24.40;99.90
48604;DHT22;32708;51.212;6.788;2023-07-13T13:31:11;24.40;99.90
48604;DHT22;32708;51.212;6.788;2023-07-13T13:33:44;24.30;99.90
48604;DHT22;32708;51.212;6.788;2023-07-13T13:36:19;24.20;99.90
48604;DHT22;32708;51.212;6.788;2023-07-13T13:38:49;24.30;99.90
48604;DHT22;32708;51.212;6.788;2023-07-13T13:41:17;24.40;99.90
48604;DHT22;32708;51.212;6.788;2023-07-13T13:43:43;24.40;99.90
48604;DHT22;32708;51.212;6.788;2023-07-13T13:46:24;24.40;99.90
48604;DHT22;32708;51.212;6.788;2023-07-13T13:48:51;24.60;99.90
48604;DHT22;32708;51.212;6.788;2023-07-13T13:51:20;24.90;99.90
48604;DHT22;32708;51.212;6.788;2023-07-13T13:53:49;24.90;99.90
48604;DHT22;32708;51.212;6.788;2023-07-13T13:56:18;25.00;99.90
48604;DHT22;32708;51.212;6.788;2023-07-13T13:58:47;24.70;99.90
48604;DHT22;32708;51.212;6.788;2023-07-13T14:01:21;24.40;99.90
48604;DHT22;32708;51.212;6.788;2023-07-13T14:03:48;24.20;99.90
48604;DHT22;32708;51.212;6.788;2023-07-13T14:06:17;24.20;99.90
48604;DHT22;32708;51.212;6.788;2023-07-13T14:08:44;24.10;99.90
48604;DHT22;32708;51.212;6.788;2023-07-13T14:11:13;24.30;99.90
48604;DHT22;32708;51.212;6.788;2023-07-13T14:13:47;24.50;99.90
48604;DHT22;32708;51.212;6.788;2023-07-13T14:16:18;24.50;99.90
48604;DHT22;32708;51.212;6.788;2023-07-13T14:18:48;24.80;99.90
48604;DHT22;32708;51.212;6.788;2023-07-13T14:21:20;24.80;99.90
48604;DHT22;32708;51.212;6.788;2023-07-13T14:23:49;24.50;99.90
48604;DHT22;32708;51.212;6.788;2023-07-13T14:26:24;24.40;99.90
48604;DHT22;32708;51.212;6.788;2023-07-13T14:28:55;24.10;99.90
48604;DHT22;32708;51.212;6.788;2023-07-13T14:31:26;24.10;99.90
48604;DHT22;32708;51.212;6.788;2023-07-13T14:33:54;24.20;99.90
48604;DHT22;32708;51.212;6.788;2023-07-13T14:36:34;24.10;99.90
48604;DHT22;32708;51.212;6.788;2023-07-13T14:39:20;23.90;99.90
48604;DHT22;32708;51.212;6.788;2023-07-13T14:41:54;23.80;99.90
48604;DHT22;32708;51.212;6.788;2023-07-13T14:44:27;24.00;99.90
48604;DHT22;32708;51.212;6.788;2023-07-13T14:46:57;24.00;99.90
48604;DHT22;32708;51.212;6.788;2023-07-13T14:49:43;23.80;99.90
48604;DHT22;32708;51.212;6.788;2023-07-13T14:52:16;23.70;99.90
48604;DHT22;32708;51.212;6.788;2023-07-13T14:54:48;23.70;99.90
48604;DHT22;32708;51.212;6.788;2023-07-13T14:57:18;23.50;99.90
48604;DHT22;32708;51.212;6.788;2023-07-13T14:59:46;19.80;99.90
48604;DHT22;32708;51.212;6.788;2023-07-13T15:02:39;18.20;99.90
48604;DHT22;32708;51.212;6.788;2023-07-13T15:05:14;17.90;99.90
48604;DHT22;32708;51.212;6.788;2023-07-13T15:07:45;17.90;99.90
48604;DHT22;32708;51.212;6.788;2023-07-13T15:10:16;18.90;99.90
48604;DHT22;32708;51.212;6.788;2023-07-13T15:12:45;17.50;99.90
48604;DHT22;32708;51.212;6.788;2023-07-13T15:15:12;17.60;99.90
48604;DHT22;32708;51.212;6.788;2023-07-13T15:17:41;17.80;99.90
48604;DHT22;32708;51.212;6.788;2023-07-13T15:20:36;17.80;99.90
48604;DHT22;32708;51.212;6.788;2023-07-13T15:23:03;18.00;99.90
48604;DHT22;32708;51.212;6.788;2023-07-13T15:25:32;18.10;99.90
48604;DHT22;32708;51.212;6.788;2023-07-13T15:28:03;18.10;99.90
48604;DHT22;32708;51.212;6.788;2023-07-13T15:30:41;18.40;99.90
48604;DHT22;32708;51.212;6.788;2023-07-13T15:35:48;19.10;99.90
48604;DHT22;32708;51.212;6.788;2023-07-13T15:40:47;19.50;99.90
48604;DHT22;32708;51.212;6.788;2023-07-13T15:43:18;19.80;99.90
48604;DHT22;32708;51.212;6.788;2023-07-13T15:45:46;19.90;99.90
48604;DHT22;32708;51.212;6.788;2023-07-13T15:48:20;19.90;99.90
48604;DHT22;32708;51.212;6.788;2023-07-13T15:50:52;20.10;91.40
48604;DHT22;32708;51.212;6.788;2023-07-13T15:53:24;20.10;81.80
48604;DHT22;32708;51.212;6.788;2023-07-13T15:55:54;20.00;59.60
48604;DHT22;32708;51.212;6.788;2023-07-13T15:58:24;20.00;41.70
48604;DHT22;32708;51.212;6.788;2023-07-13T16:00:51;20.20;25.20
48604;DHT22;32708;51.212;6.788;2023-07-13T16:03:20;20.40;29.00
48604;DHT22;32708;51.212;6.788;2023-07-13T16:05:47;20.40;23.70
48604;DHT22;32708;51.212;6.788;2023-07-13T16:08:26;20.40;4.60
48604;DHT22;32708;51.212;6.788;2023-07-13T16:10:59;20.50;6.90
48604;DHT22;32708;51.212;6.788;2023-07-13T16:13:26;20.70;1.00
48604;DHT22;32708;51.212;6.788;2023-07-13T16:15:53;20.80;12.20
48604;DHT22;32708;51.212;6.788;2023-07-13T16:18:22;20.80;10.80
48604;DHT22;32708;51.212;6.788;2023-07-13T16:20:48;20.90;1.00
48604;DHT22;32708;51.212;6.788;2023-07-13T16:23:17;21.00;1.00
48604;DHT22;32708;51.212;6.788;2023-07-13T16:25:44;21.00;1.00
48604;DHT22;32708;51.212;6.788;2023-07-13T16:28:14;21.00;99.90
48604;DHT22;32708;51.212;6.788;2023-07-13T16:30:40;20.90;99.90
48604;DHT22;32708;51.212;6.788;2023-07-13T16:33:07;20.90;1.00
48604;DHT22;32708;51.212;6.788;2023-07-13T16:35:39;20.80;99.90
48604;DHT22;32708;51.212;6.788;2023-07-13T16:38:28;20.80;99.90